Time;durP1;ratioP1;P1;durP2;ratioP2;P2;SDS_P1;SDS_P2;PMS_P1;PMS_P2;Temp;Humidity;BMP_temperature;BMP_pressure;BME280_temperature;BME280_humidity;BME280_pressure;Samples;Min_cycle;Max_cycle;Signal;HPM_P1;HPM_P2
2023/09/13 00:02:09;;;;;;;11.63;6.72;;;;;;;;;;4891612;29;20073;-80
2023/09/13 00:04:34;;;;;;;9.10;6.50;;;;;;;;;;4894578;29;20457;-80
2023/09/13 00:07:00;;;;;;;13.13;6.25;;;;;;;;;;4895348;29;20280;-80
2023/09/13 00:09:25;;;;;;;9.77;7.07;;;;;;;;;;4894934;29;20037;-80
2023/09/13 00:11:50;;;;;;;9.57;6.53;;;;;;;;;;4890082;29;20286;-80
2023/09/13 00:14:15;;;;;;;9.88;6.82;;;;;;;;;;4890548;29;20553;-80
2023/09/13 00:16:41;;;;;;;8.85;5.88;;;;;;;;;;4894165;29;20020;-80
2023/09/13 00:19:06;;;;;;;8.35;6.05;;;;;;;;;;4889075;29;20451;-80
2023/09/13 00:21:32;;;;;;;8.00;5.85;;;;;;;;;;4894205;29;20486;-81
2023/09/13 00:23:57;;;;;;;8.73;6.20;;;;;;;;;;4894372;29;20092;-80
2023/09/13 00:26:22;;;;;;;9.97;6.93;;;;;;;;;;4897655;29;20048;-80
2023/09/13 00:28:50;;;;;;;11.88;7.60;;;;;;;;;;4895878;29;20281;-80
2023/09/13 00:31:15;;;;;;;10.27;7.25;;;;;;;;;;4894211;29;20059;-81
2023/09/13 00:33:40;;;;;;;9.85;7.47;;;;;;;;;;4892055;29;20178;-81
2023/09/13 00:36:06;;;;;;;8.77;6.20;;;;;;;;;;4897636;29;20025;-81
2023/09/13 00:38:31;;;;;;;9.25;5.70;;;;;;;;;;4897892;29;20037;-81
2023/09/13 00:40:56;;;;;;;9.40;6.70;;;;;;;;;;4907762;29;20037;-81
2023/09/13 00:43:21;;;;;;;11.00;8.50;;;;;;;;;;4893567;29;20032;-80
2023/09/13 00:45:47;;;;;;;9.68;6.95;;;;;;;;;;4891824;29;20044;-81
2023/09/13 00:48:13;;;;;;;11.45;6.90;;;;;;;;;;4891217;29;20113;-80
2023/09/13 00:50:38;;;;;;;7.65;6.18;;;;;;;;;;4897931;29;20484;-81
2023/09/13 00:53:04;;;;;;;14.00;6.95;;;;;;;;;;4890649;29;20068;-80
2023/09/13 00:55:29;;;;;;;13.32;7.57;;;;;;;;;;4892031;29;20059;-80
2023/09/13 00:57:56;;;;;;;12.60;7.20;;;;;;;;;;4894161;29;20052;-80
2023/09/13 01:00:21;;;;;;;10.52;7.20;;;;;;;;;;4890937;29;20036;-80
2023/09/13 01:02:48;;;;;;;12.13;7.47;;;;;;;;;;4891110;29;20323;-80
2023/09/13 01:05:13;;;;;;;13.20;8.15;;;;;;;;;;4874044;29;20036;-80
2023/09/13 01:07:40;;;;;;;14.65;8.52;;;;;;;;;;4891375;29;20033;-80
2023/09/13 01:10:06;;;;;;;13.30;7.50;;;;;;;;;;4891074;29;20202;-80
2023/09/13 01:12:31;;;;;;;10.65;7.07;;;;;;;;;;4890566;29;20068;-80
2023/09/13 01:14:56;;;;;;;10.23;6.50;;;;;;;;;;4901934;29;20072;-80
2023/09/13 01:17:38;;;;;;;14.45;7.28;;;;;;;;;;4890962;29;20128;-80
2023/09/13 01:20:07;;;;;;;11.00;6.97;;;;;;;;;;4891676;29;20037;-80
2023/09/13 01:22:55;;;;;;;8.32;5.68;;;;;;;;;;4890867;29;20052;-80
2023/09/13 01:25:29;;;;;;;11.00;5.72;;;;;;;;;;4892891;29;20116;-80
2023/09/13 01:28:07;;;;;;;9.38;6.03;;;;;;;;;;4909295;29;20046;-81
2023/09/13 01:30:34;;;;;;;17.90;5.82;;;;;;;;;;4876166;29;20111;-80
2023/09/13 01:33:00;;;;;;;13.23;6.13;;;;;;;;;;4893135;29;20025;-80
2023/09/13 01:35:25;;;;;;;11.95;6.80;;;;;;;;;;4888847;29;20044;-80
2023/09/13 01:37:50;;;;;;;17.35;6.20;;;;;;;;;;4890709;29;20032;-80
2023/09/13 01:40:15;;;;;;;8.82;6.15;;;;;;;;;;4896977;29;20033;-80
2023/09/13 01:42:42;;;;;;;10.23;5.90;;;;;;;;;;4882964;29;20426;-80
2023/09/13 01:45:09;;;;;;;8.10;5.70;;;;;;;;;;4893232;29;20036;-80
2023/09/13 01:47:37;;;;;;;11.02;6.40;;;;;;;;;;4889661;29;20073;-80
2023/09/13 01:50:02;;;;;;;8.32;5.82;;;;;;;;;;4890834;29;20037;-80
2023/09/13 01:52:28;;;;;;;9.90;5.45;;;;;;;;;;4895023;29;20055;-80
2023/09/13 01:54:53;;;;;;;9.82;5.72;;;;;;;;;;4889364;29;20036;-80
2023/09/13 01:57:18;;;;;;;8.52;5.65;;;;;;;;;;4890885;29;20439;-80
2023/09/13 01:59:44;;;;;;;9.75;6.35;;;;;;;;;;4896103;29;20031;-80
2023/09/13 02:02:09;;;;;;;9.35;5.50;;;;;;;;;;4905842;29;20043;-80
2023/09/13 02:04:34;;;;;;;10.02;5.88;;;;;;;;;;4893346;29;20068;-80
2023/09/13 02:07:00;;;;;;;10.50;6.20;;;;;;;;;;4896639;29;20040;-80
2023/09/13 02:09:26;;;;;;;11.13;7.55;;;;;;;;;;4894362;29;20033;-80
2023/09/13 02:11:51;;;;;;;13.20;11.07;;;;;;;;;;4893269;29;20088;-80
2023/09/13 02:14:16;;;;;;;13.32;10.95;;;;;;;;;;4895080;29;20128;-80
2023/09/13 02:16:41;;;;;;;14.82;9.13;;;;;;;;;;4893446;29;20111;-80
2023/09/13 02:19:07;;;;;;;12.73;9.53;;;;;;;;;;4894435;29;20077;-80
2023/09/13 02:21:32;;;;;;;14.48;10.23;;;;;;;;;;4893017;29;20277;-80
2023/09/13 02:23:58;;;;;;;13.10;9.57;;;;;;;;;;4898336;29;20037;-80
2023/09/13 02:26:24;;;;;;;9.93;8.75;;;;;;;;;;4894246;29;20116;-80
2023/09/13 02:28:50;;;;;;;11.68;7.15;;;;;;;;;;4897470;29;20025;-80
2023/09/13 02:31:26;;;;;;;9.63;7.20;;;;;;;;;;4881760;29;20049;-80
2023/09/13 02:33:52;;;;;;;10.27;6.97;;;;;;;;;;4895972;29;20100;-80
2023/09/13 02:36:17;;;;;;;10.05;7.10;;;;;;;;;;4895895;29;20063;-80
2023/09/13 02:38:42;;;;;;;11.90;7.78;;;;;;;;;;4895644;29;20566;-80
2023/09/13 02:41:08;;;;;;;9.48;5.72;;;;;;;;;;4894249;29;20115;-80
2023/09/13 02:43:33;;;;;;;10.45;6.95;;;;;;;;;;4892525;29;20037;-80
2023/09/13 02:45:58;;;;;;;11.20;7.53;;;;;;;;;;4894639;29;20044;-80
2023/09/13 02:48:23;;;;;;;10.60;7.03;;;;;;;;;;4884505;29;20036;-80
2023/09/13 02:50:49;;;;;;;10.93;6.97;;;;;;;;;;4896584;29;20029;-80
2023/09/13 02:53:14;;;;;;;17.77;8.55;;;;;;;;;;4892740;29;20756;-80
2023/09/13 02:55:39;;;;;;;11.90;7.03;;;;;;;;;;4893514;29;20033;-80
2023/09/13 02:58:05;;;;;;;13.70;6.97;;;;;;;;;;4894545;29;20276;-80
2023/09/13 03:00:31;;;;;;;10.73;6.78;;;;;;;;;;4895152;29;20021;-80
2023/09/13 03:02:58;;;;;;;15.05;8.18;;;;;;;;;;4878147;29;20032;-80
2023/09/13 03:05:23;;;;;;;12.70;10.20;;;;;;;;;;4894481;29;20041;-80
2023/09/13 03:07:49;;;;;;;15.80;7.63;;;;;;;;;;4878608;29;20036;-81
2023/09/13 03:10:15;;;;;;;11.05;6.82;;;;;;;;;;4893820;29;20041;-80
2023/09/13 03:12:40;;;;;;;15.27;7.65;;;;;;;;;;4909154;29;20029;-80
2023/09/13 03:15:07;;;;;;;13.55;8.15;;;;;;;;;;4893852;29;20032;-80
2023/09/13 03:17:32;;;;;;;8.85;7.40;;;;;;;;;;4902176;29;20077;-81
2023/09/13 03:19:57;;;;;;;11.27;7.57;;;;;;;;;;4900103;29;20532;-81
2023/09/13 03:22:22;;;;;;;13.38;8.35;;;;;;;;;;4893867;29;20440;-80
2023/09/13 03:24:49;;;;;;;14.43;9.25;;;;;;;;;;4892761;29;20407;-81
2023/09/13 03:27:15;;;;;;;9.60;7.22;;;;;;;;;;4885271;29;20068;-80
2023/09/13 03:29:40;;;;;;;9.55;6.70;;;;;;;;;;4900416;29;20052;-80
2023/09/13 03:32:06;;;;;;;11.68;6.80;;;;;;;;;;4897171;29;20048;-80
2023/09/13 03:34:32;;;;;;;12.25;6.82;;;;;;;;;;4908912;29;20035;-79
2023/09/13 03:36:58;;;;;;;9.00;6.88;;;;;;;;;;4901474;29;20024;-80
2023/09/13 03:39:28;;;;;;;10.40;8.38;;;;;;;;;;4892268;29;20049;-79
2023/09/13 03:41:53;;;;;;;10.55;8.18;;;;;;;;;;4884787;29;20040;-79
2023/09/13 03:44:18;;;;;;;10.93;7.30;;;;;;;;;;4880774;29;20041;-79
2023/09/13 03:46:43;;;;;;;11.53;6.73;;;;;;;;;;4897912;29;20041;-80
2023/09/13 03:49:09;;;;;;;11.68;7.72;;;;;;;;;;4898876;29;20289;-79
2023/09/13 03:51:34;;;;;;;12.02;8.13;;;;;;;;;;4894630;29;20037;-80
2023/09/13 03:53:59;;;;;;;10.60;6.97;;;;;;;;;;4891939;29;20025;-80
2023/09/13 03:56:25;;;;;;;9.60;5.53;;;;;;;;;;4894216;29;20087;-80
2023/09/13 03:58:50;;;;;;;8.40;6.50;;;;;;;;;;4897776;29;20041;-80
2023/09/13 04:01:16;;;;;;;10.52;6.88;;;;;;;;;;4892602;29;20033;-80
2023/09/13 04:03:42;;;;;;;11.82;7.07;;;;;;;;;;4893691;29;20033;-79
2023/09/13 04:06:07;;;;;;;10.70;5.60;;;;;;;;;;4894892;29;20768;-80
2023/09/13 04:08:32;;;;;;;11.18;7.97;;;;;;;;;;4896015;29;20031;-80
2023/09/13 04:10:58;;;;;;;11.20;6.85;;;;;;;;;;4893547;29;20061;-80
2023/09/13 04:13:23;;;;;;;11.35;7.30;;;;;;;;;;4899318;29;20048;-80
2023/09/13 04:15:48;;;;;;;8.85;6.32;;;;;;;;;;4900700;29;20032;-80
2023/09/13 04:18:14;;;;;;;9.57;6.28;;;;;;;;;;4894476;29;20032;-80
2023/09/13 04:20:43;;;;;;;9.50;6.55;;;;;;;;;;4878925;29;20079;-80
2023/09/13 04:23:08;;;;;;;10.02;7.82;;;;;;;;;;4896566;29;20533;-80
2023/09/13 04:25:35;;;;;;;9.15;7.15;;;;;;;;;;4905897;29;20035;-79
2023/09/13 04:28:01;;;;;;;7.55;5.85;;;;;;;;;;4892005;29;20081;-79
2023/09/13 04:30:29;;;;;;;7.22;5.55;;;;;;;;;;4906283;29;20138;-79
2023/09/13 04:32:54;;;;;;;10.95;8.07;;;;;;;;;;4888827;29;20033;-80
2023/09/13 04:35:19;;;;;;;10.93;6.63;;;;;;;;;;4890171;29;20041;-80
2023/09/13 04:37:45;;;;;;;12.40;8.02;;;;;;;;;;4907014;29;20116;-80
2023/09/13 04:40:10;;;;;;;8.43;6.60;;;;;;;;;;4892222;29;20057;-80
2023/09/13 04:42:37;;;;;;;10.75;7.25;;;;;;;;;;4888351;29;20039;-80
2023/09/13 04:45:03;;;;;;;14.63;9.90;;;;;;;;;;4892656;29;20053;-80
2023/09/13 04:47:28;;;;;;;14.00;5.47;;;;;;;;;;4888566;29;20032;-80
2023/09/13 04:49:53;;;;;;;9.82;5.30;;;;;;;;;;4891710;29;20116;-81
2023/09/13 04:52:19;;;;;;;7.50;5.65;;;;;;;;;;4895968;29;20505;-80
2023/09/13 04:54:45;;;;;;;8.10;6.82;;;;;;;;;;4885191;29;20040;-80
2023/09/13 04:57:10;;;;;;;16.15;5.50;;;;;;;;;;4893476;29;20402;-79
2023/09/13 04:59:43;;;;;;;8.93;3.65;;;;;;;;;;4892759;29;20134;-80
2023/09/13 05:02:12;;;;;;;6.00;4.07;;;;;;;;;;4879552;29;20600;-80
2023/09/13 05:04:38;;;;;;;10.90;5.85;;;;;;;;;;4889295;29;20132;-80
2023/09/13 05:07:03;;;;;;;6.63;4.32;;;;;;;;;;4888872;29;20074;-80
2023/09/13 05:09:28;;;;;;;6.82;4.43;;;;;;;;;;4890524;29;20092;-80
2023/09/13 05:11:54;;;;;;;8.55;6.95;;;;;;;;;;4888679;29;20937;-80
2023/09/13 05:17:48;;;;;;;8.40;5.82;;;;;;;;;;4892254;29;20059;-80
2023/09/13 05:20:13;;;;;;;7.07;5.23;;;;;;;;;;4899191;29;20501;-80
2023/09/13 05:22:38;;;;;;;10.10;6.20;;;;;;;;;;4895431;29;20330;-80
2023/09/13 05:25:03;;;;;;;11.27;8.37;;;;;;;;;;4893539;29;20711;-80
2023/09/13 05:27:29;;;;;;;13.38;6.97;;;;;;;;;;4892066;29;20292;-80
2023/09/13 05:29:54;;;;;;;8.95;6.65;;;;;;;;;;4904258;29;20395;-80
2023/09/13 05:32:19;;;;;;;11.20;7.27;;;;;;;;;;4898576;29;20524;-80
2023/09/13 05:34:44;;;;;;;8.93;6.30;;;;;;;;;;4897195;29;20301;-80
2023/09/13 05:37:10;;;;;;;9.98;6.00;;;;;;;;;;4896217;29;20039;-80
2023/09/13 05:39:35;;;;;;;11.60;6.90;;;;;;;;;;4891613;29;20048;-80
2023/09/13 05:42:01;;;;;;;11.63;6.70;;;;;;;;;;4909635;29;20289;-80
2023/09/13 05:44:26;;;;;;;10.23;6.45;;;;;;;;;;4893263;29;20277;-80
2023/09/13 05:46:54;;;;;;;10.55;7.40;;;;;;;;;;4891282;29;20029;-80
2023/09/13 05:49:19;;;;;;;9.00;7.13;;;;;;;;;;4893194;29;20127;-81
2023/09/13 05:51:48;;;;;;;10.73;7.78;;;;;;;;;;4896468;29;20061;-80
2023/09/13 05:54:13;;;;;;;9.45;7.53;;;;;;;;;;4892447;29;20565;-80
2023/09/13 05:56:39;;;;;;;8.90;6.90;;;;;;;;;;4891465;29;20057;-80
2023/09/13 05:59:04;;;;;;;9.35;6.53;;;;;;;;;;4894433;29;20300;-80
2023/09/13 06:01:30;;;;;;;9.97;7.27;;;;;;;;;;4896769;29;20040;-80
2023/09/13 06:03:55;;;;;;;8.43;6.43;;;;;;;;;;4895724;29;20296;-80
2023/09/13 06:06:20;;;;;;;10.52;8.38;;;;;;;;;;4895856;29;20515;-80
2023/09/13 06:08:45;;;;;;;11.10;8.20;;;;;;;;;;4893651;29;20044;-80
2023/09/13 06:11:11;;;;;;;10.27;6.77;;;;;;;;;;4892053;29;20052;-80
2023/09/13 06:13:36;;;;;;;12.60;7.77;;;;;;;;;;4894935;29;20503;-80
2023/09/13 06:16:01;;;;;;;9.00;5.80;;;;;;;;;;4896449;29;20340;-81
2023/09/13 06:18:26;;;;;;;9.37;6.03;;;;;;;;;;4897253;29;20717;-80
2023/09/13 06:20:51;;;;;;;11.33;5.27;;;;;;;;;;4898540;29;20281;-80
2023/09/13 06:23:33;;;;;;;9.88;6.07;;;;;;;;;;4882550;29;20462;-80
2023/09/13 06:25:58;;;;;;;7.97;6.38;;;;;;;;;;4889445;29;20417;-80
2023/09/13 06:28:24;;;;;;;10.53;6.63;;;;;;;;;;4895362;29;20033;-80
2023/09/13 06:30:49;;;;;;;8.07;5.85;;;;;;;;;;4881307;29;20277;-80
2023/09/13 06:33:14;;;;;;;9.60;7.00;;;;;;;;;;4895413;29;20416;-80
2023/09/13 06:35:39;;;;;;;9.85;6.55;;;;;;;;;;4894090;29;20029;-80
2023/09/13 06:38:05;;;;;;;9.15;6.97;;;;;;;;;;4906455;29;20029;-80
2023/09/13 06:40:30;;;;;;;14.40;6.75;;;;;;;;;;4894986;29;20037;-80
2023/09/13 06:42:55;;;;;;;8.97;6.80;;;;;;;;;;4896618;29;20025;-80
2023/09/13 06:45:20;;;;;;;11.40;6.33;;;;;;;;;;4895851;29;20036;-80
2023/09/13 06:47:45;;;;;;;7.85;6.55;;;;;;;;;;4892628;29;20364;-80
2023/09/13 06:50:11;;;;;;;6.63;4.85;;;;;;;;;;4893803;29;20056;-80
2023/09/13 06:52:36;;;;;;;11.73;6.83;;;;;;;;;;4894128;29;20033;-80
2023/09/13 06:55:01;;;;;;;7.43;5.90;;;;;;;;;;4894748;29;20371;-81
2023/09/13 06:57:26;;;;;;;8.87;6.10;;;;;;;;;;4900992;29;20407;-81
2023/09/13 06:59:52;;;;;;;10.15;6.45;;;;;;;;;;4898290;29;20281;-81
2023/09/13 07:02:17;;;;;;;9.70;7.18;;;;;;;;;;4896007;29;20032;-81
2023/09/13 07:04:42;;;;;;;10.20;5.53;;;;;;;;;;4901165;29;20033;-81
2023/09/13 07:07:07;;;;;;;8.03;5.37;;;;;;;;;;4895222;29;20299;-80
2023/09/13 07:09:32;;;;;;;8.95;7.15;;;;;;;;;;4896842;29;20293;-80
2023/09/13 07:11:58;;;;;;;10.43;6.70;;;;;;;;;;4880266;29;20036;-81
2023/09/13 07:14:23;;;;;;;8.80;4.90;;;;;;;;;;4900151;29;20293;-81
2023/09/13 07:16:48;;;;;;;10.20;6.70;;;;;;;;;;4894879;29;20473;-81
2023/09/13 07:19:13;;;;;;;8.15;5.47;;;;;;;;;;4898576;29;20028;-80
2023/09/13 07:21:38;;;;;;;10.52;5.38;;;;;;;;;;4894014;29;20505;-81
2023/09/13 07:24:04;;;;;;;10.03;6.03;;;;;;;;;;4913553;29;20457;-81
2023/09/13 07:26:29;;;;;;;7.45;5.45;;;;;;;;;;4900520;29;20288;-80
2023/09/13 07:28:54;;;;;;;6.23;4.93;;;;;;;;;;4897879;29;20036;-80
2023/09/13 07:31:19;;;;;;;8.50;5.43;;;;;;;;;;4895383;29;20277;-80
2023/09/13 07:33:45;;;;;;;7.60;5.23;;;;;;;;;;4900319;29;20292;-80
2023/09/13 07:36:10;;;;;;;7.32;5.47;;;;;;;;;;4895731;29;20402;-80
2023/09/13 07:38:37;;;;;;;7.82;4.25;;;;;;;;;;4899543;29;20053;-80
2023/09/13 07:41:03;;;;;;;8.10;4.10;;;;;;;;;;4911510;29;20423;-81
2023/09/13 07:43:28;;;;;;;11.15;4.50;;;;;;;;;;4896393;29;20124;-80
2023/09/13 07:45:53;;;;;;;8.05;4.05;;;;;;;;;;4894245;29;20064;-80
2023/09/13 07:48:19;;;;;;;5.90;3.30;;;;;;;;;;4896761;29;20032;-80
2023/09/13 07:50:44;;;;;;;6.22;3.55;;;;;;;;;;4895084;29;20025;-80
2023/09/13 07:53:13;;;;;;;7.53;3.50;;;;;;;;;;4907975;29;20033;-80
2023/09/13 07:55:39;;;;;;;5.18;3.10;;;;;;;;;;4880078;29;20037;-80
2023/09/13 07:58:05;;;;;;;7.47;3.60;;;;;;;;;;4897646;29;20056;-81
2023/09/13 08:00:30;;;;;;;5.70;3.60;;;;;;;;;;4892884;29;20041;-80
2023/09/13 08:02:55;;;;;;;6.32;3.42;;;;;;;;;;4907774;29;20512;-80
2023/09/13 08:05:21;;;;;;;5.43;3.28;;;;;;;;;;4895529;29;20079;-81
2023/09/13 08:07:46;;;;;;;8.48;3.10;;;;;;;;;;4898006;29;20119;-80
2023/09/13 08:10:11;;;;;;;5.30;2.77;;;;;;;;;;4907446;29;20041;-81
2023/09/13 08:12:37;;;;;;;4.45;2.85;;;;;;;;;;4893598;29;20692;-80
2023/09/13 08:15:03;;;;;;;4.20;2.65;;;;;;;;;;4895029;29;20080;-80
2023/09/13 08:17:28;;;;;;;6.60;2.92;;;;;;;;;;4897520;29;20028;-80
2023/09/13 08:19:53;;;;;;;6.72;2.83;;;;;;;;;;4901182;29;20037;-80
2023/09/13 08:22:19;;;;;;;5.10;2.70;;;;;;;;;;4897950;29;20032;-80
2023/09/13 08:24:44;;;;;;;5.70;3.03;;;;;;;;;;4894225;29;20274;-80
2023/09/13 08:27:09;;;;;;;6.27;3.37;;;;;;;;;;4896209;29;20084;-80
2023/09/13 08:29:34;;;;;;;5.80;2.67;;;;;;;;;;4894157;29;20028;-80
2023/09/13 08:32:00;;;;;;;6.78;4.25;;;;;;;;;;4899510;29;20284;-80
2023/09/13 08:34:25;;;;;;;7.50;3.13;;;;;;;;;;4899449;29;20382;-80
2023/09/13 08:36:53;;;;;;;5.47;2.80;;;;;;;;;;4898398;29;20442;-80
2023/09/13 08:39:19;;;;;;;6.07;2.83;;;;;;;;;;4894087;29;20405;-80
2023/09/13 08:41:49;;;;;;;6.10;2.90;;;;;;;;;;4894246;29;20029;-80
2023/09/13 08:44:15;;;;;;;5.45;3.00;;;;;;;;;;4891353;29;20049;-80
2023/09/13 08:46:40;;;;;;;8.60;3.65;;;;;;;;;;4893013;29;20028;-80
2023/09/13 08:49:06;;;;;;;5.30;2.55;;;;;;;;;;4895961;29;20048;-80
2023/09/13 08:51:32;;;;;;;4.85;2.90;;;;;;;;;;4895971;29;20040;-79
2023/09/13 08:53:58;;;;;;;3.90;2.60;;;;;;;;;;4899216;29;20032;-80
2023/09/13 08:56:24;;;;;;;6.55;2.83;;;;;;;;;;4879710;29;20112;-80
2023/09/13 08:58:49;;;;;;;3.65;2.28;;;;;;;;;;4894700;29;20592;-80
2023/09/13 09:01:17;;;;;;;5.68;3.90;;;;;;;;;;4891077;29;20029;-80
2023/09/13 09:03:43;;;;;;;5.32;2.65;;;;;;;;;;4893862;29;20103;-79
2023/09/13 09:06:09;;;;;;;3.25;2.13;;;;;;;;;;4894269;29;20528;-80
2023/09/13 09:08:39;;;;;;;3.85;2.65;;;;;;;;;;4893050;29;20045;-80
2023/09/13 09:11:05;;;;;;;4.68;2.20;;;;;;;;;;4892565;29;20040;-79
2023/09/13 09:13:31;;;;;;;3.53;2.10;;;;;;;;;;4890536;29;20033;-80
2023/09/13 09:15:58;;;;;;;6.40;2.47;;;;;;;;;;4894955;29;20056;-81
2023/09/13 09:18:24;;;;;;;4.00;2.25;;;;;;;;;;4903650;29;20048;-80
2023/09/13 09:20:50;;;;;;;5.45;2.50;;;;;;;;;;4894370;29;20513;-80
2023/09/13 09:23:16;;;;;;;5.80;2.50;;;;;;;;;;4894875;29;20033;-80
2023/09/13 09:25:44;;;;;;;5.20;2.03;;;;;;;;;;4880829;29;20047;-80
2023/09/13 09:28:09;;;;;;;4.85;2.08;;;;;;;;;;4893371;29;20032;-79
2023/09/13 09:30:34;;;;;;;3.80;1.60;;;;;;;;;;4896018;29;20090;-80
2023/09/13 09:33:03;;;;;;;3.03;1.70;;;;;;;;;;4894484;29;20805;-80
2023/09/13 09:35:29;;;;;;;3.60;1.75;;;;;;;;;;4892585;29;20096;-79
2023/09/13 09:37:54;;;;;;;2.83;1.20;;;;;;;;;;4892585;29;20045;-80
2023/09/13 09:40:19;;;;;;;5.47;1.83;;;;;;;;;;4891221;29;20040;-79
2023/09/13 09:42:50;;;;;;;3.35;2.00;;;;;;;;;;4896060;29;20292;-80
2023/09/13 09:45:15;;;;;;;3.57;1.97;;;;;;;;;;4911873;29;20123;-79
2023/09/13 09:47:41;;;;;;;3.83;1.60;;;;;;;;;;4901451;29;20055;-77
2023/09/13 09:50:10;;;;;;;3.22;1.50;;;;;;;;;;4902178;29;20280;-78
2023/09/13 09:52:35;;;;;;;3.03;1.23;;;;;;;;;;4901827;29;20049;-78
2023/09/13 09:55:00;;;;;;;3.13;1.48;;;;;;;;;;4904040;29;20061;-78
2023/09/13 09:57:26;;;;;;;3.93;1.50;;;;;;;;;;4915117;29;20032;-78
2023/09/13 09:59:51;;;;;;;3.17;1.73;;;;;;;;;;4906002;29;20301;-78
2023/09/13 10:02:26;;;;;;;5.30;1.63;;;;;;;;;;4898316;29;20033;-78
2023/09/13 10:04:51;;;;;;;2.70;1.60;;;;;;;;;;4901949;29;20181;-78
2023/09/13 10:07:17;;;;;;;2.88;1.73;;;;;;;;;;4900042;29;20068;-78
2023/09/13 10:09:43;;;;;;;2.35;1.17;;;;;;;;;;4902759;29;20132;-78
2023/09/13 10:15:36;;;;;;;2.63;1.05;;;;;;;;;;4895601;29;20040;-77
2023/09/13 10:18:03;;;;;;;2.47;1.10;;;;;;;;;;4899987;29;20021;-77
2023/09/13 10:20:38;;;;;;;3.13;1.10;;;;;;;;;;5082653;23;20146;-78
2023/09/13 10:23:06;;;;;;;3.72;1.10;;;;;;;;;;4931285;29;20511;-78
2023/09/13 10:25:32;;;;;;;2.72;1.10;;;;;;;;;;4924463;29;20075;-78
2023/09/13 10:27:59;;;;;;;2.03;1.15;;;;;;;;;;4928913;29;20043;-78
2023/09/13 10:30:28;;;;;;;3.15;1.08;;;;;;;;;;4930060;29;20036;-78
2023/09/13 10:33:03;;;;;;;1.92;1.02;;;;;;;;;;4933865;29;20353;-78
2023/09/13 10:35:29;;;;;;;2.70;1.15;;;;;;;;;;4936272;29;20139;-78
2023/09/13 10:38:24;;;;;;;3.30;1.35;;;;;;;;;;4936815;29;20091;-78
2023/09/13 10:41:01;;;;;;;2.72;1.30;;;;;;;;;;4927464;29;20047;-77
2023/09/13 10:43:26;;;;;;;2.92;1.20;;;;;;;;;;4927726;29;20032;-77
2023/09/13 10:46:11;;;;;;;3.15;1.20;;;;;;;;;;4929155;29;20593;-78
2023/09/13 10:48:38;;;;;;;2.03;1.10;;;;;;;;;;4924387;29;20094;-78
2023/09/13 10:51:03;;;;;;;2.58;0.90;;;;;;;;;;4930655;29;20056;-78
2023/09/13 10:53:28;;;;;;;2.28;1.40;;;;;;;;;;4935886;29;20041;-78
2023/09/13 10:55:54;;;;;;;2.33;1.05;;;;;;;;;;4925755;29;20047;-77
2023/09/13 10:58:20;;;;;;;3.47;1.00;;;;;;;;;;4926700;29;20530;-78
2023/09/13 11:00:50;;;;;;;2.20;0.85;;;;;;;;;;4945707;29;20404;-79
2023/09/13 11:03:16;;;;;;;3.25;1.27;;;;;;;;;;4935257;29;20032;-78
2023/09/13 11:05:42;;;;;;;3.58;1.17;;;;;;;;;;4941845;29;20099;-78
2023/09/13 11:08:11;;;;;;;2.15;1.02;;;;;;;;;;4927719;29;20519;-78
2023/09/13 11:10:37;;;;;;;3.58;1.00;;;;;;;;;;4938732;29;20044;-79
2023/09/13 11:13:12;;;;;;;5.43;1.35;;;;;;;;;;4939021;29;20036;-78
2023/09/13 11:15:50;;;;;;;3.40;1.15;;;;;;;;;;4942943;29;20118;-77
2023/09/13 11:18:15;;;;;;;3.80;1.92;;;;;;;;;;4937078;29;20063;-79
2023/09/13 11:20:42;;;;;;;1.70;0.90;;;;;;;;;;4932594;29;20032;-78
2023/09/13 11:23:14;;;;;;;3.40;1.20;;;;;;;;;;4929369;29;20158;-79
2023/09/13 11:25:48;;;;;;;2.28;1.10;;;;;;;;;;4936375;29;20159;-79
2023/09/13 11:28:43;;;;;;;2.45;1.25;;;;;;;;;;4931442;29;20039;-79
2023/09/13 11:31:09;;;;;;;3.80;1.00;;;;;;;;;;4943084;29;20043;-78
2023/09/13 11:33:50;;;;;;;4.05;1.58;;;;;;;;;;4928357;29;20032;-77
2023/09/13 11:36:18;;;;;;;1.80;0.80;;;;;;;;;;4936524;29;20047;-79
2023/09/13 11:38:43;;;;;;;1.77;1.00;;;;;;;;;;4936422;29;20048;-79
2023/09/13 11:41:15;;;;;;;3.13;1.10;;;;;;;;;;4934719;29;20043;-79
2023/09/13 11:43:40;;;;;;;1.63;0.98;;;;;;;;;;4933354;29;20126;-78
2023/09/13 11:46:05;;;;;;;1.80;0.95;;;;;;;;;;4933972;29;20051;-79
2023/09/13 11:48:41;;;;;;;1.83;1.00;;;;;;;;;;4928853;29;20044;-79
2023/09/13 11:51:13;;;;;;;1.63;0.82;;;;;;;;;;4933798;29;20054;-79
2023/09/13 11:53:39;;;;;;;2.75;1.35;;;;;;;;;;4939057;29;20035;-77
2023/09/13 11:56:04;;;;;;;1.40;0.70;;;;;;;;;;4931851;29;20039;-79
2023/09/13 11:58:32;;;;;;;1.35;0.80;;;;;;;;;;4929725;29;20040;-79
2023/09/13 12:01:00;;;;;;;6.72;1.08;;;;;;;;;;4930913;29;20393;-79
2023/09/13 12:03:32;;;;;;;1.33;0.73;;;;;;;;;;4928799;29;20036;-79
2023/09/13 12:05:58;;;;;;;1.85;0.88;;;;;;;;;;4932321;29;20042;-79
2023/09/13 12:08:23;;;;;;;1.55;0.90;;;;;;;;;;4933806;29;20043;-78
2023/09/13 12:10:48;;;;;;;1.90;0.95;;;;;;;;;;4936059;29;20075;-79
2023/09/13 12:13:13;;;;;;;2.67;0.90;;;;;;;;;;4935476;29;20031;-79
2023/09/13 12:16:00;;;;;;;1.07;0.60;;;;;;;;;;4932919;29;20040;-76
2023/09/13 12:18:26;;;;;;;2.00;0.70;;;;;;;;;;4931719;29;20275;-79
2023/09/13 12:20:51;;;;;;;1.42;0.80;;;;;;;;;;4935115;29;20060;-79
2023/09/13 12:23:16;;;;;;;2.53;0.98;;;;;;;;;;4935310;29;20031;-79
2023/09/13 12:25:42;;;;;;;2.95;0.80;;;;;;;;;;4936844;29;20032;-79
2023/09/13 12:28:07;;;;;;;4.07;0.93;;;;;;;;;;4930910;29;20036;-79
2023/09/13 12:30:32;;;;;;;1.90;0.83;;;;;;;;;;4929644;29;20046;-79
2023/09/13 12:32:58;;;;;;;1.77;0.80;;;;;;;;;;4937041;29;20035;-79
2023/09/13 12:35:23;;;;;;;2.35;0.70;;;;;;;;;;4932032;29;20108;-78
2023/09/13 12:37:55;;;;;;;2.53;1.00;;;;;;;;;;4946236;29;20036;-79
2023/09/13 12:40:25;;;;;;;4.35;0.95;;;;;;;;;;4931452;29;20044;-79
2023/09/13 12:43:16;;;;;;;1.10;0.60;;;;;;;;;;4934319;29;20050;-81
2023/09/13 12:45:41;;;;;;;2.78;0.80;;;;;;;;;;4928085;29;20500;-81
2023/09/13 12:48:17;;;;;;;2.33;0.80;;;;;;;;;;4927947;29;20036;-81
2023/09/13 12:50:43;;;;;;;3.72;1.27;;;;;;;;;;4932107;29;20032;-82
2023/09/13 12:53:08;;;;;;;2.58;1.02;;;;;;;;;;4925721;29;20086;-81
2023/09/13 12:55:33;;;;;;;3.05;1.60;;;;;;;;;;4928259;29;20063;-82
2023/09/13 12:58:04;;;;;;;4.88;1.63;;;;;;;;;;4920938;29;20032;-81
2023/09/13 13:00:29;;;;;;;3.08;1.85;;;;;;;;;;4925678;29;20088;-81
2023/09/13 13:02:55;;;;;;;3.08;1.70;;;;;;;;;;4924028;29;20035;-81
2023/09/13 13:05:20;;;;;;;3.13;1.73;;;;;;;;;;4928105;29;20036;-80
2023/09/13 13:07:47;;;;;;;3.37;1.70;;;;;;;;;;4928332;29;20063;-81
2023/09/13 13:10:15;;;;;;;2.88;1.75;;;;;;;;;;4932485;29;20045;-81
2023/09/13 13:12:41;;;;;;;2.55;1.75;;;;;;;;;;4930479;29;20031;-81
2023/09/13 13:15:06;;;;;;;3.35;1.20;;;;;;;;;;4922841;29;20036;-81
2023/09/13 13:17:33;;;;;;;3.42;1.27;;;;;;;;;;4923580;29;20060;-81
2023/09/13 13:20:04;;;;;;;4.50;1.85;;;;;;;;;;4931267;29;20047;-81
2023/09/13 13:22:30;;;;;;;2.25;1.27;;;;;;;;;;4931122;29;20043;-81
2023/09/13 13:24:55;;;;;;;2.63;1.55;;;;;;;;;;4928858;29;20040;-81
2023/09/13 13:27:20;;;;;;;1.90;1.03;;;;;;;;;;4928634;29;20059;-81
2023/09/13 13:29:46;;;;;;;2.90;1.50;;;;;;;;;;4929426;29;20282;-81
2023/09/13 13:32:11;;;;;;;2.03;1.17;;;;;;;;;;4923827;29;20044;-81
2023/09/13 13:34:36;;;;;;;2.20;1.20;;;;;;;;;;4929618;29;20071;-81
2023/09/13 13:37:01;;;;;;;2.50;1.67;;;;;;;;;;4926530;29;20363;-80
2023/09/13 13:39:27;;;;;;;2.27;1.13;;;;;;;;;;4929936;29;20040;-81
2023/09/13 13:41:52;;;;;;;3.10;1.00;;;;;;;;;;4926937;29;20280;-81
2023/09/13 13:44:17;;;;;;;2.00;1.00;;;;;;;;;;4916817;29;20542;-80
2023/09/13 13:46:43;;;;;;;3.17;1.30;;;;;;;;;;4929441;29;20115;-81
2023/09/13 13:49:10;;;;;;;2.58;1.02;;;;;;;;;;4927685;29;20363;-81
2023/09/13 13:51:35;;;;;;;2.47;1.10;;;;;;;;;;4925644;29;20055;-80
2023/09/13 13:54:02;;;;;;;1.73;1.00;;;;;;;;;;4926955;29;20515;-81
2023/09/13 13:56:30;;;;;;;2.55;1.30;;;;;;;;;;4921642;29;20044;-80
2023/09/13 13:58:55;;;;;;;2.03;1.00;;;;;;;;;;4919460;29;20396;-81
2023/09/13 14:01:20;;;;;;;2.17;0.90;;;;;;;;;;4926156;29;20035;-81
2023/09/13 14:03:45;;;;;;;2.80;1.07;;;;;;;;;;4932081;29;20287;-81
2023/09/13 14:06:10;;;;;;;1.87;1.00;;;;;;;;;;4926175;29;20280;-80
2023/09/13 14:08:36;;;;;;;2.43;1.30;;;;;;;;;;4926187;29;20276;-81
2023/09/13 14:11:02;;;;;;;2.27;1.37;;;;;;;;;;4921248;29;20024;-81
2023/09/13 14:13:27;;;;;;;2.25;1.30;;;;;;;;;;4926656;29;20091;-81
2023/09/13 14:15:53;;;;;;;2.33;1.25;;;;;;;;;;4925206;29;20039;-81
2023/09/13 14:18:18;;;;;;;2.70;1.38;;;;;;;;;;4926513;29;20461;-80
2023/09/13 14:20:45;;;;;;;2.75;1.60;;;;;;;;;;4924743;29;20040;-81
2023/09/13 14:23:13;;;;;;;3.45;1.58;;;;;;;;;;4923800;29;20044;-81
2023/09/13 14:25:39;;;;;;;4.20;2.47;;;;;;;;;;4931228;29;20045;-82
2023/09/13 14:28:05;;;;;;;3.15;1.98;;;;;;;;;;4921483;29;20412;-81
2023/09/13 14:30:31;;;;;;;2.60;1.45;;;;;;;;;;4924942;29;20053;-81
2023/09/13 14:32:56;;;;;;;3.20;1.88;;;;;;;;;;4922855;29;20028;-81
2023/09/13 14:35:21;;;;;;;2.77;1.73;;;;;;;;;;4922491;29;20075;-82
2023/09/13 14:37:46;;;;;;;2.80;1.43;;;;;;;;;;4922204;29;20111;-81
2023/09/13 14:40:12;;;;;;;2.73;1.50;;;;;;;;;;4920625;29;20036;-81
2023/09/13 14:42:37;;;;;;;2.43;1.40;;;;;;;;;;4922726;29;20279;-82